sensor_id;sensor_type;location;lat;lon;timestamp;P1;durP1;ratioP1;P2;durP2;ratioP2
17193;SDS011;8713;48.388;10.928;2023-07-09T04:22:10;6.88;;;3.70;;
17193;SDS011;8713;48.388;10.928;2023-07-09T04:23:20;7.72;;;4.10;;
17193;SDS011;8713;48.388;10.928;2023-07-09T04:24:30;9.00;;;4.20;;
17193;SDS011;8713;48.388;10.928;2023-07-09T04:25:41;6.55;;;3.72;;
17193;SDS011;8713;48.388;10.928;2023-07-09T04:26:51;7.05;;;3.47;;
17193;SDS011;8713;48.388;10.928;2023-07-09T04:28:04;5.85;;;3.65;;
17193;SDS011;8713;48.388;10.928;2023-07-09T04:29:14;6.15;;;3.67;;
17193;SDS011;8713;48.388;10.928;2023-07-09T04:30:24;6.85;;;3.88;;
17193;SDS011;8713;48.388;10.928;2023-07-09T04:31:33;5.55;;;3.63;;
17193;SDS011;8713;48.388;10.928;2023-07-09T04:32:43;5.35;;;3.35;;
17193;SDS011;8713;48.388;10.928;2023-07-09T04:33:52;6.18;;;3.63;;
17193;SDS011;8713;48.388;10.928;2023-07-09T04:35:02;7.88;;;3.42;;
17193;SDS011;8713;48.388;10.928;2023-07-09T04:36:15;7.15;;;3.97;;
17193;SDS011;8713;48.388;10.928;2023-07-09T04:37:24;9.23;;;3.90;;
17193;SDS011;8713;48.388;10.928;2023-07-09T04:38:34;7.55;;;3.90;;
17193;SDS011;8713;48.388;10.928;2023-07-09T04:39:43;6.13;;;3.60;;
17193;SDS011;8713;48.388;10.928;2023-07-09T04:40:53;7.00;;;3.50;;
17193;SDS011;8713;48.388;10.928;2023-07-09T04:42:02;7.20;;;3.53;;
17193;SDS011;8713;48.388;10.928;2023-07-09T04:43:11;10.50;;;3.50;;
17193;SDS011;8713;48.388;10.928;2023-07-09T04:44:21;6.55;;;3.65;;
17193;SDS011;8713;48.388;10.928;2023-07-09T04:45:30;6.32;;;3.45;;
17193;SDS011;8713;48.388;10.928;2023-07-09T04:46:40;4.72;;;3.03;;
17193;SDS011;8713;48.388;10.928;2023-07-09T04:47:49;9.70;;;3.47;;
17193;SDS011;8713;48.388;10.928;2023-07-09T04:48:59;6.22;;;3.08;;
17193;SDS011;8713;48.388;10.928;2023-07-09T04:50:09;6.00;;;3.25;;
17193;SDS011;8713;48.388;10.928;2023-07-09T04:51:19;5.38;;;2.85;;
17193;SDS011;8713;48.388;10.928;2023-07-09T04:52:29;6.90;;;3.22;;
17193;SDS011;8713;48.388;10.928;2023-07-09T04:53:39;8.00;;;3.17;;
17193;SDS011;8713;48.388;10.928;2023-07-09T04:54:48;7.15;;;3.58;;
17193;SDS011;8713;48.388;10.928;2023-07-09T04:55:59;7.22;;;3.58;;
17193;SDS011;8713;48.388;10.928;2023-07-09T04:57:10;6.88;;;3.28;;
17193;SDS011;8713;48.388;10.928;2023-07-09T04:58:20;7.80;;;3.35;;
17193;SDS011;8713;48.388;10.928;2023-07-09T04:59:30;7.35;;;3.42;;
17193;SDS011;8713;48.388;10.928;2023-07-09T05:00:41;7.65;;;3.58;;
17193;SDS011;8713;48.388;10.928;2023-07-09T05:01:51;7.05;;;2.95;;
17193;SDS011;8713;48.388;10.928;2023-07-09T05:03:00;9.07;;;3.40;;
17193;SDS011;8713;48.388;10.928;2023-07-09T05:04:10;6.55;;;3.08;;
17193;SDS011;8713;48.388;10.928;2023-07-09T05:05:19;5.90;;;3.47;;
17193;SDS011;8713;48.388;10.928;2023-07-09T05:06:29;6.15;;;3.17;;
17193;SDS011;8713;48.388;10.928;2023-07-09T05:07:38;5.90;;;3.38;;
17193;SDS011;8713;48.388;10.928;2023-07-09T05:08:48;6.47;;;3.15;;
17193;SDS011;8713;48.388;10.928;2023-07-09T05:09:58;6.57;;;3.00;;
17193;SDS011;8713;48.388;10.928;2023-07-09T05:11:07;6.07;;;3.15;;
17193;SDS011;8713;48.388;10.928;2023-07-09T05:12:17;5.65;;;3.08;;
17193;SDS011;8713;48.388;10.928;2023-07-09T05:13:26;5.43;;;2.90;;
17193;SDS011;8713;48.388;10.928;2023-07-09T05:14:36;6.53;;;2.90;;
17193;SDS011;8713;48.388;10.928;2023-07-09T05:15:46;5.40;;;2.67;;
17193;SDS011;8713;48.388;10.928;2023-07-09T05:16:55;4.25;;;2.60;;
17193;SDS011;8713;48.388;10.928;2023-07-09T05:18:05;5.88;;;2.75;;
17193;SDS011;8713;48.388;10.928;2023-07-09T05:19:14;5.60;;;3.13;;
17193;SDS011;8713;48.388;10.928;2023-07-09T05:20:24;10.40;;;3.33;;
17193;SDS011;8713;48.388;10.928;2023-07-09T05:21:33;7.35;;;3.00;;
17193;SDS011;8713;48.388;10.928;2023-07-09T05:22:43;7.05;;;3.17;;
17193;SDS011;8713;48.388;10.928;2023-07-09T05:23:52;6.28;;;3.00;;
17193;SDS011;8713;48.388;10.928;2023-07-09T05:25:02;7.03;;;3.10;;
17193;SDS011;8713;48.388;10.928;2023-07-09T05:26:12;6.75;;;2.92;;
17193;SDS011;8713;48.388;10.928;2023-07-09T05:27:21;6.03;;;2.90;;
17193;SDS011;8713;48.388;10.928;2023-07-09T05:28:31;5.38;;;2.65;;
17193;SDS011;8713;48.388;10.928;2023-07-09T05:29:43;7.28;;;2.90;;
17193;SDS011;8713;48.388;10.928;2023-07-09T05:30:52;8.23;;;3.10;;
17193;SDS011;8713;48.388;10.928;2023-07-09T05:32:01;7.70;;;2.85;;
17193;SDS011;8713;48.388;10.928;2023-07-09T05:33:11;4.82;;;2.60;;
17193;SDS011;8713;48.388;10.928;2023-07-09T05:34:21;6.40;;;3.20;;
17193;SDS011;8713;48.388;10.928;2023-07-09T05:35:31;7.20;;;3.00;;
17193;SDS011;8713;48.388;10.928;2023-07-09T05:36:40;7.82;;;2.90;;
17193;SDS011;8713;48.388;10.928;2023-07-09T05:37:50;6.35;;;3.10;;
17193;SDS011;8713;48.388;10.928;2023-07-09T05:39:04;5.78;;;2.75;;
17193;SDS011;8713;48.388;10.928;2023-07-09T05:40:13;6.07;;;3.20;;
17193;SDS011;8713;48.388;10.928;2023-07-09T05:41:23;8.35;;;3.25;;
17193;SDS011;8713;48.388;10.928;2023-07-09T05:42:32;8.68;;;3.20;;
17193;SDS011;8713;48.388;10.928;2023-07-09T05:43:42;6.97;;;2.67;;
17193;SDS011;8713;48.388;10.928;2023-07-09T05:44:56;4.72;;;2.70;;
17193;SDS011;8713;48.388;10.928;2023-07-09T05:46:05;6.60;;;3.20;;
17193;SDS011;8713;48.388;10.928;2023-07-09T05:47:15;6.70;;;3.05;;
17193;SDS011;8713;48.388;10.928;2023-07-09T05:48:24;6.38;;;2.75;;
17193;SDS011;8713;48.388;10.928;2023-07-09T05:49:34;6.35;;;2.97;;
17193;SDS011;8713;48.388;10.928;2023-07-09T05:50:43;5.10;;;2.90;;
17193;SDS011;8713;48.388;10.928;2023-07-09T05:51:53;6.88;;;2.70;;
17193;SDS011;8713;48.388;10.928;2023-07-09T05:53:03;7.80;;;3.05;;
17193;SDS011;8713;48.388;10.928;2023-07-09T05:54:12;4.95;;;2.58;;
17193;SDS011;8713;48.388;10.928;2023-07-09T05:55:22;9.13;;;2.78;;
17193;SDS011;8713;48.388;10.928;2023-07-09T05:56:31;6.45;;;2.97;;
17193;SDS011;8713;48.388;10.928;2023-07-09T05:57:41;5.68;;;2.85;;
17193;SDS011;8713;48.388;10.928;2023-07-09T05:58:50;4.30;;;2.70;;
17193;SDS011;8713;48.388;10.928;2023-07-09T06:00:01;6.13;;;2.75;;
17193;SDS011;8713;48.388;10.928;2023-07-09T06:01:22;5.65;;;3.00;;
17193;SDS011;8713;48.388;10.928;2023-07-09T06:02:31;5.18;;;2.80;;
17193;SDS011;8713;48.388;10.928;2023-07-09T06:03:41;5.13;;;2.90;;
17193;SDS011;8713;48.388;10.928;2023-07-09T06:04:51;7.22;;;2.63;;
17193;SDS011;8713;48.388;10.928;2023-07-09T06:06:01;5.50;;;2.83;;
17193;SDS011;8713;48.388;10.928;2023-07-09T06:07:10;5.63;;;2.75;;
17193;SDS011;8713;48.388;10.928;2023-07-09T06:08:22;6.80;;;2.92;;
17193;SDS011;8713;48.388;10.928;2023-07-09T06:09:32;5.72;;;2.42;;
17193;SDS011;8713;48.388;10.928;2023-07-09T06:12:04;6.03;;;2.53;;
17193;SDS011;8713;48.388;10.928;2023-07-09T06:13:17;5.55;;;2.40;;
17193;SDS011;8713;48.388;10.928;2023-07-09T06:14:27;4.38;;;2.58;;
17193;SDS011;8713;48.388;10.928;2023-07-09T06:15:37;5.93;;;2.65;;
17193;SDS011;8713;48.388;10.928;2023-07-09T06:16:46;4.63;;;2.60;;
17193;SDS011;8713;48.388;10.928;2023-07-09T06:17:56;5.57;;;2.65;;
17193;SDS011;8713;48.388;10.928;2023-07-09T06:19:06;5.72;;;2.63;;
17193;SDS011;8713;48.388;10.928;2023-07-09T06:20:15;10.25;;;2.88;;
17193;SDS011;8713;48.388;10.928;2023-07-09T06:21:25;6.65;;;2.78;;
17193;SDS011;8713;48.388;10.928;2023-07-09T06:22:34;4.72;;;2.70;;
17193;SDS011;8713;48.388;10.928;2023-07-09T06:23:47;9.02;;;3.00;;
17193;SDS011;8713;48.388;10.928;2023-07-09T06:24:56;5.43;;;2.42;;
17193;SDS011;8713;48.388;10.928;2023-07-09T06:26:06;5.65;;;2.53;;
17193;SDS011;8713;48.388;10.928;2023-07-09T06:27:15;5.28;;;2.60;;
17193;SDS011;8713;48.388;10.928;2023-07-09T06:28:27;4.63;;;2.50;;
17193;SDS011;8713;48.388;10.928;2023-07-09T06:29:38;5.55;;;2.67;;
17193;SDS011;8713;48.388;10.928;2023-07-09T06:30:48;5.20;;;2.72;;
17193;SDS011;8713;48.388;10.928;2023-07-09T06:31:58;4.35;;;2.47;;
17193;SDS011;8713;48.388;10.928;2023-07-09T06:33:08;3.88;;;2.30;;
17193;SDS011;8713;48.388;10.928;2023-07-09T06:34:18;4.65;;;2.50;;
17193;SDS011;8713;48.388;10.928;2023-07-09T06:35:28;5.15;;;2.40;;
17193;SDS011;8713;48.388;10.928;2023-07-09T06:36:37;6.97;;;2.83;;
17193;SDS011;8713;48.388;10.928;2023-07-09T06:37:47;3.80;;;2.58;;
17193;SDS011;8713;48.388;10.928;2023-07-09T06:38:56;6.25;;;2.55;;
17193;SDS011;8713;48.388;10.928;2023-07-09T06:40:06;5.22;;;2.45;;
17193;SDS011;8713;48.388;10.928;2023-07-09T06:41:17;5.45;;;2.97;;
17193;SDS011;8713;48.388;10.928;2023-07-09T06:42:27;5.50;;;2.20;;
17193;SDS011;8713;48.388;10.928;2023-07-09T06:43:48;5.30;;;2.40;;
17193;SDS011;8713;48.388;10.928;2023-07-09T06:44:57;5.75;;;2.58;;
17193;SDS011;8713;48.388;10.928;2023-07-09T06:46:08;4.15;;;2.40;;
17193;SDS011;8713;48.388;10.928;2023-07-09T06:47:20;6.88;;;2.50;;
17193;SDS011;8713;48.388;10.928;2023-07-09T06:48:31;7.47;;;2.83;;
17193;SDS011;8713;48.388;10.928;2023-07-09T06:49:41;4.95;;;2.58;;
17193;SDS011;8713;48.388;10.928;2023-07-09T06:50:52;3.92;;;2.25;;
17193;SDS011;8713;48.388;10.928;2023-07-09T06:52:03;4.22;;;2.50;;
17193;SDS011;8713;48.388;10.928;2023-07-09T06:53:13;6.25;;;2.63;;
17193;SDS011;8713;48.388;10.928;2023-07-09T06:54:24;4.32;;;2.60;;
17193;SDS011;8713;48.388;10.928;2023-07-09T06:55:34;6.20;;;2.58;;
17193;SDS011;8713;48.388;10.928;2023-07-09T06:56:44;5.47;;;2.40;;
17193;SDS011;8713;48.388;10.928;2023-07-09T06:57:53;4.40;;;2.40;;
17193;SDS011;8713;48.388;10.928;2023-07-09T06:59:03;4.55;;;2.50;;
17193;SDS011;8713;48.388;10.928;2023-07-09T07:00:13;5.80;;;2.45;;
17193;SDS011;8713;48.388;10.928;2023-07-09T07:01:23;6.97;;;2.90;;
17193;SDS011;8713;48.388;10.928;2023-07-09T07:02:33;5.32;;;2.60;;
17193;SDS011;8713;48.388;10.928;2023-07-09T07:03:42;5.07;;;2.55;;
17193;SDS011;8713;48.388;10.928;2023-07-09T07:04:51;5.25;;;2.58;;
17193;SDS011;8713;48.388;10.928;2023-07-09T07:06:01;4.00;;;2.28;;
17193;SDS011;8713;48.388;10.928;2023-07-09T07:07:11;4.75;;;2.63;;
17193;SDS011;8713;48.388;10.928;2023-07-09T07:08:21;4.63;;;2.53;;
17193;SDS011;8713;48.388;10.928;2023-07-09T07:09:32;7.95;;;2.75;;
17193;SDS011;8713;48.388;10.928;2023-07-09T07:10:42;7.40;;;2.60;;
17193;SDS011;8713;48.388;10.928;2023-07-09T07:11:51;5.38;;;2.63;;
17193;SDS011;8713;48.388;10.928;2023-07-09T07:13:01;4.55;;;2.38;;
17193;SDS011;8713;48.388;10.928;2023-07-09T07:14:10;5.93;;;2.75;;
17193;SDS011;8713;48.388;10.928;2023-07-09T07:15:20;5.32;;;2.67;;
17193;SDS011;8713;48.388;10.928;2023-07-09T07:16:30;5.50;;;2.50;;
17193;SDS011;8713;48.388;10.928;2023-07-09T07:17:40;4.35;;;2.40;;
17193;SDS011;8713;48.388;10.928;2023-07-09T07:18:49;5.45;;;2.67;;
17193;SDS011;8713;48.388;10.928;2023-07-09T07:19:59;4.95;;;2.65;;
17193;SDS011;8713;48.388;10.928;2023-07-09T07:21:09;7.30;;;2.40;;
17193;SDS011;8713;48.388;10.928;2023-07-09T07:22:18;6.30;;;2.63;;
17193;SDS011;8713;48.388;10.928;2023-07-09T07:23:28;9.18;;;2.80;;
17193;SDS011;8713;48.388;10.928;2023-07-09T07:24:38;5.03;;;2.67;;
17193;SDS011;8713;48.388;10.928;2023-07-09T07:25:49;7.00;;;2.58;;
17193;SDS011;8713;48.388;10.928;2023-07-09T07:26:59;4.57;;;2.63;;
17193;SDS011;8713;48.388;10.928;2023-07-09T07:28:08;5.22;;;2.35;;
17193;SDS011;8713;48.388;10.928;2023-07-09T07:29:18;5.55;;;2.63;;
17193;SDS011;8713;48.388;10.928;2023-07-09T07:30:27;4.75;;;2.58;;
17193;SDS011;8713;48.388;10.928;2023-07-09T07:31:37;6.13;;;2.50;;
17193;SDS011;8713;48.388;10.928;2023-07-09T07:32:47;8.02;;;2.88;;
17193;SDS011;8713;48.388;10.928;2023-07-09T07:33:57;3.83;;;2.67;;
17193;SDS011;8713;48.388;10.928;2023-07-09T07:35:07;4.30;;;2.45;;
17193;SDS011;8713;48.388;10.928;2023-07-09T07:36:16;5.72;;;2.63;;
17193;SDS011;8713;48.388;10.928;2023-07-09T07:37:26;7.95;;;2.78;;
17193;SDS011;8713;48.388;10.928;2023-07-09T07:38:35;5.18;;;2.45;;
17193;SDS011;8713;48.388;10.928;2023-07-09T07:39:45;3.97;;;2.43;;
17193;SDS011;8713;48.388;10.928;2023-07-09T07:40:54;5.65;;;2.50;;
17193;SDS011;8713;48.388;10.928;2023-07-09T07:42:04;4.18;;;2.33;;
17193;SDS011;8713;48.388;10.928;2023-07-09T07:43:14;6.38;;;2.50;;
17193;SDS011;8713;48.388;10.928;2023-07-09T07:44:23;6.65;;;2.65;;
17193;SDS011;8713;48.388;10.928;2023-07-09T07:45:40;5.82;;;2.60;;
17193;SDS011;8713;48.388;10.928;2023-07-09T07:46:52;5.00;;;2.88;;
17193;SDS011;8713;48.388;10.928;2023-07-09T07:48:02;5.28;;;2.70;;
17193;SDS011;8713;48.388;10.928;2023-07-09T07:49:11;6.32;;;2.60;;
17193;SDS011;8713;48.388;10.928;2023-07-09T07:50:21;5.15;;;2.63;;
17193;SDS011;8713;48.388;10.928;2023-07-09T07:51:30;6.22;;;2.75;;
17193;SDS011;8713;48.388;10.928;2023-07-09T07:52:40;4.88;;;2.80;;
17193;SDS011;8713;48.388;10.928;2023-07-09T07:53:49;4.32;;;2.45;;
17193;SDS011;8713;48.388;10.928;2023-07-09T07:54:59;6.30;;;2.60;;
17193;SDS011;8713;48.388;10.928;2023-07-09T07:56:10;5.40;;;2.72;;
17193;SDS011;8713;48.388;10.928;2023-07-09T07:57:21;6.03;;;2.67;;
17193;SDS011;8713;48.388;10.928;2023-07-09T07:58:33;5.35;;;2.58;;
17193;SDS011;8713;48.388;10.928;2023-07-09T07:59:42;5.95;;;2.63;;
17193;SDS011;8713;48.388;10.928;2023-07-09T08:00:55;4.10;;;2.45;;
17193;SDS011;8713;48.388;10.928;2023-07-09T08:02:08;5.15;;;2.53;;
17193;SDS011;8713;48.388;10.928;2023-07-09T08:03:20;5.13;;;2.60;;
17193;SDS011;8713;48.388;10.928;2023-07-09T08:04:30;5.30;;;2.30;;
17193;SDS011;8713;48.388;10.928;2023-07-09T08:05:40;5.00;;;2.30;;
17193;SDS011;8713;48.388;10.928;2023-07-09T08:06:49;4.63;;;2.30;;
17193;SDS011;8713;48.388;10.928;2023-07-09T08:07:59;3.90;;;2.25;;
17193;SDS011;8713;48.388;10.928;2023-07-09T08:09:08;4.50;;;2.28;;
17193;SDS011;8713;48.388;10.928;2023-07-09T08:10:18;4.88;;;2.20;;
17193;SDS011;8713;48.388;10.928;2023-07-09T08:11:28;5.75;;;2.38;;
17193;SDS011;8713;48.388;10.928;2023-07-09T08:12:40;3.75;;;2.13;;
17193;SDS011;8713;48.388;10.928;2023-07-09T08:13:49;3.83;;;2.08;;
17193;SDS011;8713;48.388;10.928;2023-07-09T08:14:59;3.22;;;2.00;;
17193;SDS011;8713;48.388;10.928;2023-07-09T08:16:09;4.93;;;2.22;;
17193;SDS011;8713;48.388;10.928;2023-07-09T08:17:20;5.72;;;2.42;;
17193;SDS011;8713;48.388;10.928;2023-07-09T08:18:30;4.20;;;2.28;;
17193;SDS011;8713;48.388;10.928;2023-07-09T08:19:50;5.18;;;2.35;;
17193;SDS011;8713;48.388;10.928;2023-07-09T08:21:02;5.72;;;2.20;;
17193;SDS011;8713;48.388;10.928;2023-07-09T08:22:12;3.70;;;1.90;;
17193;SDS011;8713;48.388;10.928;2023-07-09T08:23:23;4.28;;;2.22;;
17193;SDS011;8713;48.388;10.928;2023-07-09T08:24:33;5.00;;;2.40;;
17193;SDS011;8713;48.388;10.928;2023-07-09T08:25:42;4.80;;;2.13;;
17193;SDS011;8713;48.388;10.928;2023-07-09T08:26:52;4.05;;;2.05;;
17193;SDS011;8713;48.388;10.928;2023-07-09T08:28:01;5.68;;;2.35;;
17193;SDS011;8713;48.388;10.928;2023-07-09T08:29:11;4.75;;;2.00;;
17193;SDS011;8713;48.388;10.928;2023-07-09T08:30:21;5.43;;;2.30;;
17193;SDS011;8713;48.388;10.928;2023-07-09T08:31:30;5.57;;;2.30;;
17193;SDS011;8713;48.388;10.928;2023-07-09T08:32:40;5.03;;;2.33;;
17193;SDS011;8713;48.388;10.928;2023-07-09T08:34:01;4.47;;;2.08;;
17193;SDS011;8713;48.388;10.928;2023-07-09T08:35:11;5.28;;;2.20;;
17193;SDS011;8713;48.388;10.928;2023-07-09T08:36:21;6.63;;;2.35;;
17193;SDS011;8713;48.388;10.928;2023-07-09T08:37:31;3.25;;;1.90;;
17193;SDS011;8713;48.388;10.928;2023-07-09T08:38:40;4.57;;;2.30;;
17193;SDS011;8713;48.388;10.928;2023-07-09T08:39:50;3.85;;;2.35;;
17193;SDS011;8713;48.388;10.928;2023-07-09T08:41:01;4.10;;;2.22;;
17193;SDS011;8713;48.388;10.928;2023-07-09T08:42:19;7.38;;;2.42;;
17193;SDS011;8713;48.388;10.928;2023-07-09T08:49:45;6.63;;;2.30;;
17193;SDS011;8713;48.388;10.928;2023-07-09T08:51:03;4.45;;;2.60;;
17193;SDS011;8713;48.388;10.928;2023-07-09T08:53:49;5.75;;;2.17;;
17193;SDS011;8713;48.388;10.928;2023-07-09T08:55:22;6.40;;;2.05;;
17193;SDS011;8713;48.388;10.928;2023-07-09T08:56:54;3.35;;;2.03;;
17193;SDS011;8713;48.388;10.928;2023-07-09T08:58:27;4.88;;;2.22;;
17193;SDS011;8713;48.388;10.928;2023-07-09T09:00:02;3.50;;;2.10;;
17193;SDS011;8713;48.388;10.928;2023-07-09T09:02:03;3.53;;;1.90;;
17193;SDS011;8713;48.388;10.928;2023-07-09T09:03:38;5.75;;;2.10;;
17193;SDS011;8713;48.388;10.928;2023-07-09T09:05:17;4.72;;;2.05;;
17193;SDS011;8713;48.388;10.928;2023-07-09T09:07:33;5.22;;;2.08;;
17193;SDS011;8713;48.388;10.928;2023-07-09T09:11:22;5.10;;;1.65;;
17193;SDS011;8713;48.388;10.928;2023-07-09T09:13:15;4.57;;;1.67;;
17193;SDS011;8713;48.388;10.928;2023-07-09T09:14:48;4.03;;;2.08;;
17193;SDS011;8713;48.388;10.928;2023-07-09T09:16:30;4.25;;;2.25;;
17193;SDS011;8713;48.388;10.928;2023-07-09T09:18:14;4.50;;;2.10;;
17193;SDS011;8713;48.388;10.928;2023-07-09T09:19:56;5.07;;;2.35;;
17193;SDS011;8713;48.388;10.928;2023-07-09T09:21:35;4.00;;;1.98;;
17193;SDS011;8713;48.388;10.928;2023-07-09T09:23:14;4.00;;;1.65;;
17193;SDS011;8713;48.388;10.928;2023-07-09T09:24:53;4.57;;;2.20;;
17193;SDS011;8713;48.388;10.928;2023-07-09T09:26:32;2.63;;;1.77;;
17193;SDS011;8713;48.388;10.928;2023-07-09T09:28:03;6.00;;;1.98;;
17193;SDS011;8713;48.388;10.928;2023-07-09T09:29:33;3.78;;;1.90;;
17193;SDS011;8713;48.388;10.928;2023-07-09T09:31:02;4.97;;;1.92;;
17193;SDS011;8713;48.388;10.928;2023-07-09T09:32:36;3.58;;;1.98;;
17193;SDS011;8713;48.388;10.928;2023-07-09T09:34:04;4.82;;;1.83;;
17193;SDS011;8713;48.388;10.928;2023-07-09T09:35:15;4.28;;;1.83;;
17193;SDS011;8713;48.388;10.928;2023-07-09T09:36:29;3.70;;;1.92;;
17193;SDS011;8713;48.388;10.928;2023-07-09T09:37:57;4.72;;;1.92;;
17193;SDS011;8713;48.388;10.928;2023-07-09T09:39:26;4.32;;;1.85;;
17193;SDS011;8713;48.388;10.928;2023-07-09T09:40:59;3.63;;;1.70;;
17193;SDS011;8713;48.388;10.928;2023-07-09T09:42:29;3.00;;;1.55;;
17193;SDS011;8713;48.388;10.928;2023-07-09T09:43:59;4.38;;;1.88;;
17193;SDS011;8713;48.388;10.928;2023-07-09T09:45:33;5.70;;;1.75;;
17193;SDS011;8713;48.388;10.928;2023-07-09T09:47:08;7.80;;;1.80;;
17193;SDS011;8713;48.388;10.928;2023-07-09T09:48:40;4.07;;;2.10;;
17193;SDS011;8713;48.388;10.928;2023-07-09T09:50:13;3.95;;;2.10;;
17193;SDS011;8713;48.388;10.928;2023-07-09T09:51:50;4.07;;;2.00;;
17193;SDS011;8713;48.388;10.928;2023-07-09T09:53:21;3.95;;;1.83;;
17193;SDS011;8713;48.388;10.928;2023-07-09T09:55:01;2.88;;;1.88;;
17193;SDS011;8713;48.388;10.928;2023-07-09T09:56:29;5.00;;;1.70;;
17193;SDS011;8713;48.388;10.928;2023-07-09T09:57:47;3.67;;;1.85;;
17193;SDS011;8713;48.388;10.928;2023-07-09T09:58:59;4.53;;;1.92;;
17193;SDS011;8713;48.388;10.928;2023-07-09T10:00:12;4.45;;;2.20;;
17193;SDS011;8713;48.388;10.928;2023-07-09T10:01:29;3.55;;;1.55;;
17193;SDS011;8713;48.388;10.928;2023-07-09T10:02:40;3.20;;;1.88;;
17193;SDS011;8713;48.388;10.928;2023-07-09T10:03:51;3.38;;;1.85;;
17193;SDS011;8713;48.388;10.928;2023-07-09T10:05:01;4.22;;;2.10;;
17193;SDS011;8713;48.388;10.928;2023-07-09T10:10:42;4.32;;;2.00;;
17193;SDS011;8713;48.388;10.928;2023-07-09T10:12:03;2.80;;;1.70;;
17193;SDS011;8713;48.388;10.928;2023-07-09T10:13:28;3.35;;;1.70;;
17193;SDS011;8713;48.388;10.928;2023-07-09T10:14:49;2.65;;;1.80;;
17193;SDS011;8713;48.388;10.928;2023-07-09T10:16:16;3.13;;;1.70;;
17193;SDS011;8713;48.388;10.928;2023-07-09T10:21:17;4.43;;;1.80;;
17193;SDS011;8713;48.388;10.928;2023-07-09T10:25:54;3.13;;;1.65;;
17193;SDS011;8713;48.388;10.928;2023-07-09T10:30:42;3.15;;;1.85;;
17193;SDS011;8713;48.388;10.928;2023-07-09T10:37:31;4.13;;;1.70;;
17193;SDS011;8713;48.388;10.928;2023-07-09T10:38:51;4.53;;;2.03;;
17193;SDS011;8713;48.388;10.928;2023-07-09T10:40:10;6.10;;;2.05;;
17193;SDS011;8713;48.388;10.928;2023-07-09T10:41:23;4.43;;;2.10;;
17193;SDS011;8713;48.388;10.928;2023-07-09T10:42:35;5.53;;;2.05;;
17193;SDS011;8713;48.388;10.928;2023-07-09T10:45:42;4.40;;;1.80;;
17193;SDS011;8713;48.388;10.928;2023-07-09T10:46:57;4.70;;;1.88;;
17193;SDS011;8713;48.388;10.928;2023-07-09T10:48:14;5.30;;;2.00;;
17193;SDS011;8713;48.388;10.928;2023-07-09T10:49:33;3.97;;;1.75;;
17193;SDS011;8713;48.388;10.928;2023-07-09T10:50:51;4.10;;;1.88;;
17193;SDS011;8713;48.388;10.928;2023-07-09T10:52:05;8.07;;;2.10;;
17193;SDS011;8713;48.388;10.928;2023-07-09T10:55:05;5.00;;;2.28;;
17193;SDS011;8713;48.388;10.928;2023-07-09T10:56:24;2.80;;;1.67;;
17193;SDS011;8713;48.388;10.928;2023-07-09T10:57:52;2.95;;;1.70;;
17193;SDS011;8713;48.388;10.928;2023-07-09T10:59:24;3.90;;;1.67;;
17193;SDS011;8713;48.388;10.928;2023-07-09T11:00:39;5.28;;;1.83;;
17193;SDS011;8713;48.388;10.928;2023-07-09T11:01:50;3.58;;;2.00;;
17193;SDS011;8713;48.388;10.928;2023-07-09T11:03:08;3.20;;;1.80;;
17193;SDS011;8713;48.388;10.928;2023-07-09T11:04:33;2.75;;;1.85;;
17193;SDS011;8713;48.388;10.928;2023-07-09T11:05:47;4.35;;;2.13;;
17193;SDS011;8713;48.388;10.928;2023-07-09T11:06:58;4.25;;;2.10;;
17193;SDS011;8713;48.388;10.928;2023-07-09T11:08:16;5.20;;;1.92;;
17193;SDS011;8713;48.388;10.928;2023-07-09T11:09:33;5.97;;;1.80;;
17193;SDS011;8713;48.388;10.928;2023-07-09T11:10:48;6.38;;;2.00;;
17193;SDS011;8713;48.388;10.928;2023-07-09T11:12:50;3.35;;;1.85;;
17193;SDS011;8713;48.388;10.928;2023-07-09T11:13:58;5.32;;;1.85;;
17193;SDS011;8713;48.388;10.928;2023-07-09T11:15:14;4.30;;;2.03;;
17193;SDS011;8713;48.388;10.928;2023-07-09T11:16:28;4.90;;;2.10;;
17193;SDS011;8713;48.388;10.928;2023-07-09T11:17:43;6.25;;;2.30;;
17193;SDS011;8713;48.388;10.928;2023-07-09T11:18:55;4.15;;;2.33;;
17193;SDS011;8713;48.388;10.928;2023-07-09T11:20:19;6.53;;;1.90;;
17193;SDS011;8713;48.388;10.928;2023-07-09T11:21:33;4.20;;;1.80;;
17193;SDS011;8713;48.388;10.928;2023-07-09T11:23:20;5.13;;;1.90;;
17193;SDS011;8713;48.388;10.928;2023-07-09T11:24:44;3.50;;;2.00;;
17193;SDS011;8713;48.388;10.928;2023-07-09T11:26:10;3.95;;;1.83;;
17193;SDS011;8713;48.388;10.928;2023-07-09T11:27:31;5.15;;;1.88;;
17193;SDS011;8713;48.388;10.928;2023-07-09T11:28:45;5.90;;;2.33;;
17193;SDS011;8713;48.388;10.928;2023-07-09T11:30:15;4.05;;;1.73;;
17193;SDS011;8713;48.388;10.928;2023-07-09T11:31:36;4.18;;;1.70;;
17193;SDS011;8713;48.388;10.928;2023-07-09T11:32:52;5.68;;;1.95;;
17193;SDS011;8713;48.388;10.928;2023-07-09T11:34:14;5.32;;;1.98;;
17193;SDS011;8713;48.388;10.928;2023-07-09T11:35:28;4.25;;;2.10;;
17193;SDS011;8713;48.388;10.928;2023-07-09T11:37:00;4.13;;;2.13;;
17193;SDS011;8713;48.388;10.928;2023-07-09T11:38:17;4.25;;;1.88;;
17193;SDS011;8713;48.388;10.928;2023-07-09T11:40:48;3.92;;;1.90;;
17193;SDS011;8713;48.388;10.928;2023-07-09T11:42:02;3.45;;;2.05;;
17193;SDS011;8713;48.388;10.928;2023-07-09T11:43:24;6.20;;;2.35;;
17193;SDS011;8713;48.388;10.928;2023-07-09T11:44:45;4.38;;;2.40;;
17193;SDS011;8713;48.388;10.928;2023-07-09T11:45:56;4.85;;;2.30;;
17193;SDS011;8713;48.388;10.928;2023-07-09T11:49:00;4.00;;;1.75;;
17193;SDS011;8713;48.388;10.928;2023-07-09T11:50:21;3.50;;;1.85;;
17193;SDS011;8713;48.388;10.928;2023-07-09T11:51:38;4.88;;;2.25;;
17193;SDS011;8713;48.388;10.928;2023-07-09T11:52:54;5.63;;;2.10;;
17193;SDS011;8713;48.388;10.928;2023-07-09T11:54:11;4.63;;;2.20;;
17193;SDS011;8713;48.388;10.928;2023-07-09T11:55:24;3.90;;;2.22;;
17193;SDS011;8713;48.388;10.928;2023-07-09T11:56:35;2.85;;;1.80;;
17193;SDS011;8713;48.388;10.928;2023-07-09T11:57:48;7.43;;;2.00;;
17193;SDS011;8713;48.388;10.928;2023-07-09T11:59:10;4.03;;;1.80;;
17193;SDS011;8713;48.388;10.928;2023-07-09T12:00:20;3.97;;;2.00;;
17193;SDS011;8713;48.388;10.928;2023-07-09T12:01:42;5.35;;;2.00;;
17193;SDS011;8713;48.388;10.928;2023-07-09T12:02:55;4.28;;;1.88;;
17193;SDS011;8713;48.388;10.928;2023-07-09T12:04:05;4.13;;;2.30;;
17193;SDS011;8713;48.388;10.928;2023-07-09T12:05:15;6.93;;;2.22;;
17193;SDS011;8713;48.388;10.928;2023-07-09T12:06:30;5.65;;;2.15;;
17193;SDS011;8713;48.388;10.928;2023-07-09T12:07:41;3.45;;;1.88;;
17193;SDS011;8713;48.388;10.928;2023-07-09T12:08:51;4.95;;;2.00;;
17193;SDS011;8713;48.388;10.928;2023-07-09T12:10:02;3.42;;;1.92;;
17193;SDS011;8713;48.388;10.928;2023-07-09T12:11:20;4.47;;;2.10;;
17193;SDS011;8713;48.388;10.928;2023-07-09T12:12:41;6.15;;;2.20;;
17193;SDS011;8713;48.388;10.928;2023-07-09T12:13:51;6.55;;;3.88;;
17193;SDS011;8713;48.388;10.928;2023-07-09T12:15:04;5.03;;;2.42;;
17193;SDS011;8713;48.388;10.928;2023-07-09T12:16:31;5.68;;;2.40;;
17193;SDS011;8713;48.388;10.928;2023-07-09T12:17:52;5.15;;;2.20;;
17193;SDS011;8713;48.388;10.928;2023-07-09T12:19:06;5.40;;;2.30;;
17193;SDS011;8713;48.388;10.928;2023-07-09T12:20:15;5.47;;;2.10;;
17193;SDS011;8713;48.388;10.928;2023-07-09T12:21:25;4.82;;;2.30;;
17193;SDS011;8713;48.388;10.928;2023-07-09T12:22:35;3.72;;;1.80;;
17193;SDS011;8713;48.388;10.928;2023-07-09T12:23:50;4.53;;;2.30;;
17193;SDS011;8713;48.388;10.928;2023-07-09T12:25:00;5.13;;;2.20;;
17193;SDS011;8713;48.388;10.928;2023-07-09T12:26:15;4.75;;;2.60;;
17193;SDS011;8713;48.388;10.928;2023-07-09T12:27:30;5.55;;;2.20;;
17193;SDS011;8713;48.388;10.928;2023-07-09T12:28:50;4.78;;;2.17;;
17193;SDS011;8713;48.388;10.928;2023-07-09T12:30:09;6.20;;;2.75;;
17193;SDS011;8713;48.388;10.928;2023-07-09T12:31:24;5.50;;;2.17;;